Time;durP1;ratioP1;P1;durP2;ratioP2;P2;SDS_P1;SDS_P2;PMS_P1;PMS_P2;Temp;Humidity;BMP_temperature;BMP_pressure;BME280_temperature;BME280_humidity;BME280_pressure;Samples;Min_cycle;Max_cycle;Signal;HPM_P1;HPM_P2
2021/06/05 00:00:23;;;;;;;2.00;1.80;;;15.40;45.60;;;;;;5087194;28;20036;-76
2021/06/05 00:02:49;;;;;;;2.58;1.50;;;15.40;45.70;;;;;;5087054;28;20476;-77
2021/06/05 00:05:16;;;;;;;2.83;1.85;;;15.40;45.70;;;;;;5086400;28;20779;-77
2021/06/05 00:07:42;;;;;;;1.95;1.65;;;15.30;45.70;;;;;;5085664;28;20211;-77
2021/06/05 00:10:12;;;;;;;2.08;1.65;;;15.30;45.80;;;;;;5087333;28;20028;-73
2021/06/05 00:12:38;;;;;;;2.90;2.00;;;15.20;45.70;;;;;;5087337;28;20195;-75
2021/06/05 00:15:12;;;;;;;4.22;2.22;;;15.20;45.80;;;;;;5085556;28;20027;-75
2021/06/05 00:17:39;;;;;;;2.20;1.70;;;15.20;46.00;;;;;;5085944;28;20535;-77
2021/06/05 00:20:11;;;;;;;2.00;1.67;;;15.10;45.80;;;;;;5069927;28;20028;-75
2021/06/05 00:22:37;;;;;;;5.25;2.08;;;15.10;46.00;;;;;;5066516;28;20028;-77
2021/06/05 00:25:07;;;;;;;2.65;1.67;;;15.10;46.10;;;;;;5084361;28;20035;-78
2021/06/05 00:27:34;;;;;;;2.20;1.88;;;15.00;45.90;;;;;;5087037;28;20032;-76
2021/06/05 00:30:03;;;;;;;2.15;1.80;;;15.00;46.00;;;;;;5087127;28;20347;-74
2021/06/05 00:32:31;;;;;;;3.30;1.98;;;15.00;46.10;;;;;;5085598;28;20035;-77
2021/06/05 00:34:57;;;;;;;4.00;2.10;;;15.00;46.20;;;;;;5085398;28;20490;-78
2021/06/05 00:37:24;;;;;;;2.25;1.90;;;14.90;46.10;;;;;;5086873;28;20030;-77
2021/06/05 00:39:49;;;;;;;3.17;1.90;;;14.90;46.20;;;;;;5086173;28;20047;-76
2021/06/05 00:42:16;;;;;;;2.83;2.00;;;14.80;46.10;;;;;;5086295;28;20123;-72
2021/06/05 00:44:42;;;;;;;3.50;2.05;;;14.80;46.10;;;;;;5068283;28;20111;-76
2021/06/05 00:47:08;;;;;;;4.43;2.30;;;14.80;46.20;;;;;;5086519;28;20092;-77
2021/06/05 00:49:34;;;;;;;3.10;2.10;;;14.80;46.30;;;;;;5086230;28;20028;-72
2021/06/05 00:52:03;;;;;;;3.53;1.98;;;14.80;46.30;;;;;;5086082;28;20419;-72
2021/06/05 00:54:33;;;;;;;6.43;2.13;;;14.70;46.20;;;;;;5084428;28;20123;-72
2021/06/05 00:57:04;;;;;;;4.63;2.38;;;14.70;46.30;;;;;;5085226;28;20036;-75
2021/06/05 00:59:35;;;;;;;2.80;2.28;;;14.70;46.40;;;;;;5084869;28;20474;-75
2021/06/05 01:02:27;;;;;;;2.58;1.80;;;14.60;46.20;;;;;;5085076;28;20028;-78
2021/06/05 01:04:57;;;;;;;4.68;2.13;;;14.60;46.40;;;;;;5084759;28;20274;-81
2021/06/05 01:07:27;;;;;;;3.25;2.05;;;14.50;46.10;;;;;;5052907;28;20043;-77
2021/06/05 01:10:11;;;;;;;2.25;2.05;;;14.50;46.20;;;;;;5068009;28;20028;-72
2021/06/05 01:13:04;;;;;;;;;;;14.50;46.40;;;;;;5068834;28;20508;-76
2021/06/05 01:19:59;;;;;;;2.30;1.92;;;14.40;46.00;;;;;;5092165;28;20391;-76
2021/06/05 01:22:28;;;;;;;4.22;2.05;;;14.30;45.90;;;;;;5068374;28;20036;-73
2021/06/05 01:25:53;;;;;;;2.50;2.05;;;14.30;45.90;;;;;;5046750;28;20033;-76
2021/06/05 01:28:35;;;;;;;2.25;1.90;;;14.30;46.20;;;;;;5026263;28;20041;-77
2021/06/05 01:31:06;;;;;;;3.25;1.95;;;14.20;45.90;;;;;;5068233;22;20136;-72
2021/06/05 01:33:37;;;;;;;2.97;2.25;;;14.20;46.10;;;;;;5048065;28;20056;-72
2021/06/05 01:36:06;;;;;;;2.13;1.83;;;14.20;46.20;;;;;;5046951;28;20040;-72
2021/06/05 01:38:36;;;;;;;2.38;2.17;;;14.20;46.20;;;;;;5046862;28;20033;-71
2021/06/05 01:41:23;;;;;;;1.90;1.73;;;14.10;46.20;;;;;;5046003;28;20033;-72
2021/06/05 01:43:50;;;;;;;2.75;2.10;;;14.10;46.40;;;;;;5046490;28;20087;-72
2021/06/05 01:46:22;;;;;;;2.15;1.95;;;14.10;46.30;;;;;;5066879;22;20492;-87
2021/06/05 01:48:52;;;;;;;3.60;2.03;;;14.00;46.20;;;;;;5071517;28;20025;-87
2021/06/05 01:51:22;;;;;;;2.90;2.40;;;14.00;46.30;;;;;;5071525;28;20058;-88
2021/06/05 03:30:47;;;;;;;2.90;2.60;;;13.10;45.90;;;;;;5072208;28;20067;-87
2021/06/05 03:33:16;;;;;;;2.30;2.10;;;13.00;45.80;;;;;;5037001;28;20539;-88
2021/06/05 03:35:42;;;;;;;2.55;2.10;;;13.00;45.90;;;;;;5053802;28;20039;-86
2021/06/05 03:38:10;;;;;;;3.28;2.58;;;13.00;46.10;;;;;;5037341;28;20032;-87
2021/06/05 03:40:38;;;;;;;2.17;1.98;;;12.90;46.00;;;;;;5037630;28;20487;-90
2021/06/05 03:43:05;;;;;;;2.65;2.45;;;12.90;46.20;;;;;;5017320;28;20025;-90
2021/06/05 03:45:33;;;;;;;3.13;2.33;;;12.90;46.30;;;;;;5009852;28;20030;-91
2021/06/05 03:48:00;;;;;;;2.72;2.47;;;12.90;46.40;;;;;;5050690;28;20175;-85
2021/06/05 03:50:33;;;;;;;3.17;2.38;;;12.90;46.50;;;;;;5037220;28;20029;-86
2021/06/05 03:52:59;;;;;;;5.30;2.90;;;12.90;46.60;;;;;;5020176;28;20122;-89
2021/06/05 03:55:26;;;;;;;2.50;2.30;;;12.80;46.50;;;;;;5036981;28;20029;-90
2021/06/05 03:57:53;;;;;;;2.60;2.40;;;12.80;46.50;;;;;;5053764;28;20100;-91
2021/06/05 04:00:24;;;;;;;3.35;2.70;;;12.80;46.60;;;;;;5054867;28;20507;-89
2021/06/05 04:02:50;;;;;;;2.78;2.50;;;12.80;46.70;;;;;;5020033;28;20040;-91
2021/06/05 04:05:16;;;;;;;2.70;2.25;;;12.80;46.70;;;;;;5036914;28;20123;-88
2021/06/05 04:07:42;;;;;;;3.20;2.85;;;12.80;46.80;;;;;;5020899;28;20025;-88
2021/06/05 04:10:11;;;;;;;2.58;2.38;;;12.80;46.80;;;;;;5020328;28;20491;-87
2021/06/05 05:24:12;;;;;;;2.40;2.20;;;12.60;46.40;;;;;;5049148;28;20210;-85
2021/06/05 05:26:38;;;;;;;3.10;2.63;;;12.60;46.40;;;;;;5048209;28;20021;-86
2021/06/05 05:29:04;;;;;;;2.90;2.70;;;12.70;46.60;;;;;;5049917;28;20203;-86
2021/06/05 05:31:30;;;;;;;2.88;2.67;;;12.70;46.80;;;;;;5027476;28;20174;-86
2021/06/05 05:39:23;;;;;;;3.25;2.83;;;12.70;47.10;;;;;;5065383;28;20085;-85
2021/06/05 05:48:03;;;;;;;2.10;2.00;;;12.80;47.00;;;;;;5069431;28;20044;-85
2021/06/05 06:01:00;;;;;;;2.83;2.30;;;13.10;47.40;;;;;;5050965;28;20122;-88
2021/06/05 06:07:34;;;;;;;2.78;2.20;;;13.40;47.90;;;;;;5050575;28;20029;-89
2021/06/05 06:10:00;;;;;;;2.38;2.08;;;13.60;47.90;;;;;;5038973;28;20033;-88
2021/06/05 06:12:26;;;;;;;2.63;2.42;;;13.80;48.50;;;;;;5035758;28;20055;-86
2021/06/05 06:23:37;;;;;;;5.80;2.45;;;14.40;49.50;;;;;;4993038;28;20041;-88
2021/06/05 06:26:45;;;;;;;2.63;2.20;;;14.70;49.80;;;;;;5008261;28;20100;-84
2021/06/05 06:29:19;;;;;;;5.00;2.65;;;15.00;49.90;;;;;;4975741;28;20124;-84
2021/06/05 06:31:46;;;;;;;;;;;15.20;50.30;;;;;;4992493;28;20125;-85
2021/06/05 06:34:12;;;;;;;;;;;15.50;50.40;;;;;;4992823;28;20012;-84
2021/06/05 06:36:39;;;;;;;;;;;15.80;50.50;;;;;;5008411;28;19913;-84
2021/06/05 06:39:05;;;;;;;;;;;16.00;50.60;;;;;;4988677;28;20000;-83
2021/06/05 06:41:32;;;;;;;;;;;16.30;50.80;;;;;;4988258;28;20008;-82
2021/06/05 06:43:59;;;;;;;;;;;16.60;51.00;;;;;;4984711;28;19968;-87
2021/06/05 06:46:26;;;;;;;;;;;16.90;51.20;;;;;;4972128;28;19910;-82
2021/06/05 06:48:53;;;;;;;;;;;17.20;51.40;;;;;;5027135;28;19919;-83
2021/06/05 06:51:19;;;;;;;;;;;17.50;51.50;;;;;;5036869;28;20294;-83
2021/06/05 06:53:45;;;;;;;;;;;17.80;51.80;;;;;;5063259;28;19920;-83
2021/06/05 06:56:11;;;;;;;;;;;18.10;52.00;;;;;;5070137;28;19912;-86
2021/06/05 06:58:37;;;;;;;;;;;18.30;52.10;;;;;;5070512;28;19912;-86
2021/06/05 07:01:04;;;;;;;;;;;18.60;52.30;;;;;;5070012;28;20322;-83
2021/06/05 07:03:30;;;;;;;;;;;18.80;52.30;;;;;;5052711;28;20369;-83
2021/06/05 07:05:55;;;;;;;;;;;19.10;52.60;;;;;;5070143;28;20007;-84
2021/06/05 07:08:23;;;;;;;;;;;19.30;52.70;;;;;;5068933;28;20033;-85
2021/06/05 07:10:50;;;;;;;;;;;19.60;52.90;;;;;;5051664;28;19908;-85
2021/06/05 07:13:17;;;;;;;;;;;19.80;53.00;;;;;;5069767;28;19916;-85
2021/06/05 07:17:02;;;;;;;8.43;4.22;;;20.20;52.80;;;;;;5119486;27;20450;-75
2021/06/05 07:19:28;;;;;;;10.02;4.20;;;20.40;53.70;;;;;;5104358;28;20046;-76
2021/06/05 07:21:54;;;;;;;8.20;4.60;;;20.70;54.10;;;;;;5103902;28;20442;-78
2021/06/05 07:24:20;;;;;;;9.02;4.38;;;20.90;54.10;;;;;;5102581;28;20028;-76
2021/06/05 07:26:46;;;;;;;7.13;4.13;;;21.20;54.20;;;;;;5104127;28;20031;-74
2021/06/05 07:29:13;;;;;;;6.55;3.97;;;21.50;54.30;;;;;;5103210;28;20229;-75
2021/06/05 07:31:41;;;;;;;8.88;3.95;;;21.70;54.20;;;;;;5108595;28;20028;-76
2021/06/05 07:34:07;;;;;;;6.50;4.30;;;22.00;54.20;;;;;;5105900;28;20456;-75
2021/06/05 07:36:43;;;;;;;6.80;3.58;;;22.30;54.10;;;;;;5090732;28;20361;-72
2021/06/05 07:39:13;;;;;;;7.68;4.00;;;22.50;53.80;;;;;;5101079;28;20481;-74
2021/06/05 07:41:41;;;;;;;8.48;4.22;;;22.80;54.00;;;;;;5083214;28;20037;-74
2021/06/05 07:44:08;;;;;;;6.07;3.85;;;23.10;54.00;;;;;;5099040;28;20559;-72
2021/06/05 07:46:38;;;;;;;6.65;4.03;;;23.40;53.80;;;;;;5102927;28;20027;-76
2021/06/05 07:49:04;;;;;;;10.45;4.57;;;23.60;53.40;;;;;;5101620;28;20470;-76
2021/06/05 07:51:30;;;;;;;8.32;4.07;;;23.90;53.10;;;;;;5103213;28;20039;-73
2021/06/05 07:53:56;;;;;;;9.27;4.28;;;24.20;53.00;;;;;;5102305;28;20024;-74
2021/06/05 07:56:22;;;;;;;12.38;4.53;;;24.40;52.60;;;;;;5102803;28;20039;-74
2021/06/05 07:58:48;;;;;;;11.25;4.53;;;24.70;52.40;;;;;;5101435;28;20127;-76
2021/06/05 08:01:14;;;;;;;10.85;4.18;;;25.00;52.30;;;;;;5102765;28;20114;-76
2021/06/05 08:03:41;;;;;;;8.32;4.50;;;25.20;51.60;;;;;;5088929;28;20086;-75
2021/06/05 08:06:07;;;;;;;11.23;4.78;;;25.60;51.10;;;;;;5082484;28;20035;-75
2021/06/05 08:08:33;;;;;;;13.10;4.60;;;25.80;50.30;;;;;;5082950;28;20032;-77
2021/06/05 08:10:59;;;;;;;10.02;4.68;;;26.10;49.70;;;;;;5082653;28;20398;-76
2021/06/05 08:13:25;;;;;;;11.00;4.38;;;26.40;49.20;;;;;;5082142;28;20025;-77
2021/06/05 08:15:52;;;;;;;12.32;4.40;;;26.70;48.50;;;;;;5080520;28;20048;-77
2021/06/05 08:18:20;;;;;;;7.82;4.45;;;27.00;47.90;;;;;;5081820;28;20119;-77
2021/06/05 08:20:53;;;;;;;10.43;4.03;;;27.30;47.10;;;;;;5082355;28;20063;-77
2021/06/05 08:23:20;;;;;;;9.07;3.65;;;27.70;46.40;;;;;;5079785;28;20111;-77
2021/06/05 08:25:48;;;;;;;10.65;3.55;;;28.00;45.80;;;;;;5083370;28;20382;-76
2021/06/05 08:28:16;;;;;;;9.40;3.28;;;28.30;45.10;;;;;;5065372;28;20390;-74
2021/06/05 08:30:45;;;;;;;11.60;3.65;;;28.60;44.20;;;;;;5084813;28;20066;-75
2021/06/05 08:33:13;;;;;;;7.28;3.20;;;28.90;43.40;;;;;;5079732;28;20028;-76
2021/06/05 08:35:41;;;;;;;7.25;3.50;;;29.10;42.90;;;;;;5068982;28;20028;-76
2021/06/05 08:38:09;;;;;;;5.00;2.55;;;29.30;42.90;;;;;;5069042;28;20047;-76
2021/06/05 08:40:45;;;;;;;6.57;2.92;;;29.40;41.90;;;;;;5070684;28;20039;-76
2021/06/05 08:43:17;;;;;;;8.68;4.18;;;29.60;41.30;;;;;;5070369;28;20128;-77
2021/06/05 08:45:43;;;;;;;8.75;3.80;;;29.70;40.90;;;;;;5053171;28;20054;-78
2021/06/05 08:48:17;;;;;;;6.65;2.58;;;29.80;40.70;;;;;;5070200;28;20360;-75
2021/06/05 08:50:44;;;;;;;6.07;2.22;;;29.80;40.40;;;;;;5070414;28;20074;-76
2021/06/05 08:53:22;;;;;;;8.40;2.78;;;29.80;40.20;;;;;;5069661;28;20355;-74
2021/06/05 08:55:54;;;;;;;6.13;2.70;;;29.70;40.00;;;;;;5069288;28;20145;-73
2021/06/05 08:58:37;;;;;;;7.35;2.95;;;29.60;40.00;;;;;;5070002;28;20024;-75
2021/06/05 09:01:33;;;;;;;9.75;2.72;;;29.40;40.20;;;;;;5068753;28;20411;-72
2021/06/05 09:04:05;;;;;;;4.80;2.72;;;29.20;40.40;;;;;;5057438;28;20505;-75
2021/06/05 09:06:39;;;;;;;6.47;2.90;;;28.90;40.90;;;;;;5069111;28;20078;-75
2021/06/05 09:09:08;;;;;;;4.43;2.30;;;28.40;41.50;;;;;;5071248;28;20039;-74
2021/06/05 09:11:35;;;;;;;7.70;3.17;;;27.90;42.20;;;;;;5070786;28;20025;-73
2021/06/05 09:14:02;;;;;;;8.60;2.30;;;27.50;42.90;;;;;;5075473;28;20356;-74
2021/06/05 09:16:34;;;;;;;6.55;2.28;;;27.20;43.30;;;;;;5082680;28;20075;-74
2021/06/05 09:19:09;;;;;;;8.35;3.10;;;26.90;43.80;;;;;;5071885;28;20518;-75
2021/06/05 09:21:53;;;;;;;8.63;3.03;;;26.80;43.90;;;;;;5053979;28;20032;-74
2021/06/05 09:24:30;;;;;;;5.20;2.50;;;26.80;43.90;;;;;;5069556;28;20286;-75
2021/06/05 09:27:18;;;;;;;8.18;3.08;;;26.80;43.90;;;;;;5070607;28;20367;-76
2021/06/05 09:29:56;;;;;;;6.50;2.65;;;26.50;44.10;;;;;;5051832;28;20032;-75
2021/06/05 09:32:30;;;;;;;9.02;3.45;;;26.30;44.50;;;;;;5067967;28;20037;-74
2021/06/05 09:35:04;;;;;;;7.93;2.97;;;26.20;44.60;;;;;;5052038;28;20051;-73
2021/06/05 09:37:38;;;;;;;4.15;2.33;;;26.20;44.90;;;;;;5052472;28;20055;-73
2021/06/05 09:40:19;;;;;;;6.95;2.97;;;26.10;45.00;;;;;;5050570;28;20036;-74
2021/06/05 09:42:58;;;;;;;8.38;2.97;;;26.00;45.30;;;;;;5069778;28;20158;-74
2021/06/05 09:45:36;;;;;;;8.60;3.30;;;26.00;45.40;;;;;;5067902;28;20044;-74
2021/06/05 09:48:31;;;;;;;6.03;2.75;;;25.90;45.60;;;;;;5068203;28;20491;-73
2021/06/05 09:51:20;;;;;;;5.13;2.50;;;25.80;45.70;;;;;;5067505;28;20029;-74
2021/06/05 09:53:58;;;;;;;5.55;2.58;;;25.60;45.70;;;;;;5067417;28;20490;-73
2021/06/05 09:56:28;;;;;;;8.05;2.80;;;25.50;46.00;;;;;;5068226;28;20040;-74
2021/06/05 09:59:05;;;;;;;5.53;2.78;;;25.50;46.10;;;;;;5068866;28;20033;-74
2021/06/05 10:01:33;;;;;;;7.65;2.38;;;25.50;46.20;;;;;;5068433;28;20050;-74
2021/06/05 10:04:11;;;;;;;4.72;2.50;;;25.60;46.30;;;;;;5068464;28;20039;-73
2021/06/05 10:06:43;;;;;;;6.38;2.65;;;25.60;46.10;;;;;;5069124;28;20590;-74
2021/06/05 10:09:25;;;;;;;9.77;2.40;;;25.70;46.10;;;;;;5050756;28;20028;-74
2021/06/05 10:12:05;;;;;;;4.78;2.60;;;25.80;45.80;;;;;;5068672;28;20032;-73
2021/06/05 10:14:50;;;;;;;7.88;2.38;;;25.90;45.60;;;;;;5068720;28;20035;-74
2021/06/05 10:17:50;;;;;;;5.38;3.00;;;26.00;45.50;;;;;;5067079;28;20141;-73
2021/06/05 10:20:36;;;;;;;5.93;2.63;;;25.90;45.40;;;;;;5055021;28;20119;-74
2021/06/05 10:23:03;;;;;;;6.40;2.65;;;25.90;45.80;;;;;;5050615;28;20036;-72
2021/06/05 10:25:35;;;;;;;6.68;2.55;;;25.90;45.60;;;;;;5050080;28;20039;-73
2021/06/05 10:28:21;;;;;;;6.90;2.80;;;25.90;45.40;;;;;;5066112;28;20063;-76
2021/06/05 10:30:49;;;;;;;11.02;2.75;;;25.90;45.40;;;;;;5064788;28;20111;-77
2021/06/05 10:33:25;;;;;;;7.72;2.95;;;25.90;45.40;;;;;;5047862;28;20028;-76
2021/06/05 10:35:58;;;;;;;9.55;3.00;;;25.90;45.20;;;;;;5066218;28;20054;-74
2021/06/05 10:38:49;;;;;;;6.28;3.13;;;26.00;45.20;;;;;;5064657;28;20028;-75
2021/06/05 10:41:23;;;;;;;8.57;2.67;;;26.00;45.10;;;;;;5062114;28;20044;-75
2021/06/05 10:43:50;;;;;;;9.77;3.35;;;26.00;45.10;;;;;;5065221;28;20028;-75
2021/06/05 10:46:28;;;;;;;5.72;2.63;;;26.00;45.20;;;;;;5064979;28;20548;-75
2021/06/05 10:49:24;;;;;;;9.65;2.78;;;25.90;45.50;;;;;;5066414;28;20325;-77
2021/06/05 10:52:08;;;;;;;7.07;3.25;;;25.80;45.10;;;;;;5065137;28;20562;-76
2021/06/05 10:54:36;;;;;;;;;;;25.60;45.30;;;;;;5065149;28;20037;-75
2021/06/05 10:57:23;;;;;;;6.72;3.22;;;25.60;45.60;;;;;;5064224;28;20264;-76
2021/06/05 10:59:56;;;;;;;6.10;2.72;;;25.60;45.40;;;;;;5064030;28;20205;-74
2021/06/05 11:02:37;;;;;;;9.20;3.43;;;25.70;45.40;;;;;;5065798;28;20123;-75
2021/06/05 11:05:34;;;;;;;8.75;2.70;;;25.80;45.20;;;;;;5063463;28;20039;-73
2021/06/05 11:08:20;;;;;;;5.97;2.80;;;25.90;45.30;;;;;;5062963;28;20079;-73
2021/06/05 11:10:49;;;;;;;5.53;2.97;;;25.90;45.20;;;;;;5064220;28;20040;-74
2021/06/05 11:13:37;;;;;;;7.00;2.80;;;26.00;45.30;;;;;;5064096;28;20031;-74
2021/06/05 11:16:15;;;;;;;7.55;3.03;;;26.10;45.20;;;;;;5064601;28;20063;-73
2021/06/05 11:18:52;;;;;;;8.45;3.13;;;26.20;45.80;;;;;;5063830;28;20107;-73
2021/06/05 11:21:21;;;;;;;6.22;2.92;;;26.30;45.00;;;;;;5065683;28;20037;-74
2021/06/05 11:23:56;;;;;;;8.05;2.85;;;26.40;45.00;;;;;;5063966;28;20449;-74
2021/06/05 11:26:38;;;;;;;7.20;2.67;;;26.50;44.70;;;;;;5065853;28;20040;-75
2021/06/05 11:29:27;;;;;;;5.50;2.42;;;26.60;44.60;;;;;;5065536;28;20035;-74
2021/06/05 11:31:57;;;;;;;7.05;2.03;;;26.70;44.60;;;;;;5054546;28;20065;-75
2021/06/05 11:34:29;;;;;;;7.20;2.60;;;26.70;44.50;;;;;;5064180;28;20032;-73
2021/06/05 11:37:04;;;;;;;4.75;2.60;;;26.80;44.20;;;;;;5047681;28;20091;-73
2021/06/05 11:39:30;;;;;;;4.88;2.15;;;26.80;44.20;;;;;;5063016;28;20394;-73
2021/06/05 11:42:16;;;;;;;4.82;2.20;;;26.80;44.20;;;;;;5047005;28;20033;-74
2021/06/05 11:44:44;;;;;;;4.75;2.40;;;26.90;43.70;;;;;;5063810;28;20051;-73
2021/06/05 11:47:16;;;;;;;5.38;2.65;;;26.90;43.70;;;;;;5064845;28;20497;-73
2021/06/05 11:49:42;;;;;;;5.97;2.30;;;26.80;43.50;;;;;;5063907;28;20029;-73
2021/06/05 11:52:26;;;;;;;5.93;2.70;;;26.80;43.60;;;;;;5047473;28;20039;-73
2021/06/05 11:55:10;;;;;;;6.32;2.22;;;26.80;43.50;;;;;;5065937;28;20033;-73
2021/06/05 11:57:40;;;;;;;4.40;2.13;;;26.90;43.60;;;;;;5063909;28;20037;-72
2021/06/05 12:00:31;;;;;;;5.60;2.45;;;27.00;43.70;;;;;;5063190;28;20032;-73
2021/06/05 12:03:32;;;;;;;4.03;2.05;;;27.00;43.40;;;;;;5067612;28;20046;-72
2021/06/05 12:06:08;;;;;;;8.70;2.50;;;27.10;43.50;;;;;;5052822;28;20052;-73
2021/06/05 12:08:34;;;;;;;4.47;2.15;;;27.20;43.60;;;;;;5067280;28;20421;-72
2021/06/05 12:11:00;;;;;;;6.07;2.30;;;27.20;43.60;;;;;;5068733;28;20360;-73
2021/06/05 12:13:36;;;;;;;5.28;2.20;;;27.30;43.70;;;;;;5068451;28;20036;-71
2021/06/05 12:16:22;;;;;;;4.88;2.00;;;27.40;43.40;;;;;;5068977;28;20052;-74
2021/06/05 12:18:50;;;;;;;5.63;2.30;;;27.40;43.30;;;;;;5068364;28;20036;-73
2021/06/05 12:21:33;;;;;;;5.80;1.90;;;27.20;43.30;;;;;;5068682;28;20061;-73
2021/06/05 12:24:31;;;;;;;3.80;1.92;;;27.10;43.70;;;;;;5068377;28;20037;-72
2021/06/05 12:27:01;;;;;;;6.30;2.10;;;27.20;43.90;;;;;;5066807;28;20045;-72
2021/06/05 12:29:36;;;;;;;3.78;2.10;;;27.40;44.00;;;;;;5068042;28;20025;-73
2021/06/05 12:32:17;;;;;;;4.05;1.63;;;27.60;43.80;;;;;;5066989;28;20474;-72
2021/06/05 12:34:44;;;;;;;5.05;1.83;;;27.90;43.40;;;;;;5050436;28;20036;-73
2021/06/05 12:37:24;;;;;;;5.80;2.20;;;27.90;43.00;;;;;;5067064;28;20039;-73
2021/06/05 12:39:56;;;;;;;6.15;2.33;;;27.80;42.70;;;;;;5067776;28;20036;-74
2021/06/05 12:42:31;;;;;;;2.78;1.70;;;27.60;43.00;;;;;;5068166;28;20029;-72
2021/06/05 12:45:04;;;;;;;2.80;1.60;;;27.40;42.90;;;;;;5066825;28;20078;-74
2021/06/05 12:47:33;;;;;;;5.25;1.67;;;27.30;43.10;;;;;;5068226;28;20031;-74
2021/06/05 12:50:01;;;;;;;4.00;1.85;;;27.20;43.10;;;;;;5066259;28;20143;-73
2021/06/05 12:52:29;;;;;;;3.08;1.52;;;27.20;43.10;;;;;;5067930;28;20479;-74
2021/06/05 12:55:29;;;;;;;2.88;1.95;;;27.10;43.20;;;;;;5067780;28;20028;-72
2021/06/05 12:58:02;;;;;;;4.20;1.77;;;27.00;43.30;;;;;;5066422;28;20029;-73
2021/06/05 13:00:28;;;;;;;3.63;1.50;;;26.90;43.60;;;;;;5068377;28;20133;-73
2021/06/05 13:02:57;;;;;;;2.72;1.50;;;26.80;44.00;;;;;;5068425;28;20450;-73
2021/06/05 13:05:35;;;;;;;3.15;1.55;;;26.70;44.20;;;;;;5066590;28;20446;-73
2021/06/05 13:08:29;;;;;;;2.58;1.38;;;26.60;44.20;;;;;;5066448;28;20028;-74
2021/06/05 13:10:55;;;;;;;;;;;26.60;44.20;;;;;;5050286;28;20029;-74
2021/06/05 13:13:24;;;;;;;2.97;1.17;;;26.50;44.30;;;;;;5067104;28;20316;-74
2021/06/05 13:15:56;;;;;;;4.68;1.40;;;26.40;44.50;;;;;;5067206;28;20055;-73
2021/06/05 13:18:33;;;;;;;2.28;1.10;;;26.30;44.60;;;;;;5066404;28;20028;-72
2021/06/05 13:21:03;;;;;;;2.92;1.42;;;26.30;45.30;;;;;;5067861;28;20459;-73
2021/06/05 13:23:40;;;;;;;2.03;1.40;;;26.30;44.80;;;;;;5067439;28;20035;-73
2021/06/05 13:26:31;;;;;;;3.72;1.17;;;26.30;44.90;;;;;;5067116;28;20048;-73
2021/06/05 13:29:29;;;;;;;2.13;1.25;;;26.20;45.00;;;;;;5067233;28;20056;-73
2021/06/05 13:32:01;;;;;;;2.33;1.50;;;26.30;45.00;;;;;;5067230;28;20025;-72
2021/06/05 13:34:32;;;;;;;2.95;1.02;;;26.20;45.20;;;;;;5049162;28;20024;-73
2021/06/05 13:37:26;;;;;;;2.33;1.35;;;26.20;45.50;;;;;;5067068;28;20116;-73
2021/06/05 13:40:02;;;;;;;2.45;1.38;;;26.20;45.50;;;;;;5049294;28;20032;-73
2021/06/05 13:42:34;;;;;;;1.08;0.95;;;26.20;45.30;;;;;;5067030;28;20111;-74
2021/06/05 13:45:05;;;;;;;3.95;1.40;;;26.10;45.20;;;;;;5049864;28;20021;-74
2021/06/05 13:47:32;;;;;;;1.98;1.40;;;26.10;45.40;;;;;;5066809;28;20219;-73
2021/06/05 13:49:57;;;;;;;3.05;1.33;;;26.00;46.10;;;;;;5066956;28;20039;-73
2021/06/05 13:52:34;;;;;;;4.20;1.48;;;25.90;45.50;;;;;;5066518;28;20036;-73
2021/06/05 13:55:04;;;;;;;2.80;1.08;;;25.90;45.60;;;;;;5066049;28;20039;-74
2021/06/05 13:57:31;;;;;;;4.68;0.90;;;25.90;45.50;;;;;;5066378;28;20039;-72
2021/06/05 13:59:57;;;;;;;3.72;1.23;;;25.80;45.70;;;;;;5066840;28;20111;-73
2021/06/05 14:02:24;;;;;;;3.08;1.27;;;25.80;45.90;;;;;;5066491;28;20043;-73
2021/06/05 14:04:50;;;;;;;2.63;1.30;;;25.80;46.00;;;;;;5066276;28;20081;-73
2021/06/05 14:07:21;;;;;;;1.52;1.10;;;25.80;46.10;;;;;;5067143;28;20059;-76
2021/06/05 14:09:49;;;;;;;3.17;1.58;;;25.80;46.20;;;;;;5066009;28;20029;-72
2021/06/05 14:12:20;;;;;;;2.97;1.45;;;25.90;46.10;;;;;;5066456;28;20630;-73
2021/06/05 14:14:46;;;;;;;2.20;1.20;;;26.00;46.10;;;;;;5065600;28;20035;-72
2021/06/05 14:17:13;;;;;;;3.28;1.50;;;26.10;46.10;;;;;;5066968;28;20035;-72
2021/06/05 14:19:39;;;;;;;4.30;1.75;;;26.20;46.10;;;;;;5066051;28;20029;-73
2021/06/05 14:22:07;;;;;;;3.88;1.60;;;26.30;46.00;;;;;;5064976;28;20394;-74
2021/06/05 14:24:34;;;;;;;4.43;1.30;;;26.40;46.00;;;;;;5065629;28;20033;-75
2021/06/05 14:27:00;;;;;;;4.40;1.50;;;26.40;45.80;;;;;;5066594;28;20051;-73
2021/06/05 14:29:28;;;;;;;4.57;1.67;;;26.50;45.70;;;;;;5066091;28;20032;-73
2021/06/05 14:31:55;;;;;;;4.47;1.70;;;26.50;45.70;;;;;;5066283;28;20032;-73
2021/06/05 14:34:22;;;;;;;3.97;1.60;;;26.50;45.70;;;;;;5064882;28;20048;-73
2021/06/05 14:36:48;;;;;;;4.40;1.58;;;26.50;45.60;;;;;;5064050;28;20082;-73
2021/06/05 14:39:15;;;;;;;6.53;1.83;;;26.50;45.80;;;;;;5066033;28;20052;-73
2021/06/05 14:41:58;;;;;;;6.70;1.77;;;26.50;45.80;;;;;;5066069;28;20040;-73
2021/06/05 14:44:26;;;;;;;5.82;1.67;;;26.60;45.70;;;;;;5065632;28;20032;-74
2021/06/05 14:46:53;;;;;;;4.10;1.50;;;26.50;45.60;;;;;;5064544;28;20039;-72
2021/06/05 14:49:20;;;;;;;5.13;1.27;;;26.50;45.70;;;;;;5065980;28;20040;-72
2021/06/05 14:51:47;;;;;;;1.90;1.25;;;26.40;45.80;;;;;;5066032;28;20039;-73
2021/06/05 14:54:15;;;;;;;4.05;1.65;;;26.40;46.00;;;;;;5065647;28;20027;-72
2021/06/05 14:56:42;;;;;;;3.50;1.50;;;26.30;45.90;;;;;;5066026;28;20032;-74
2021/06/05 14:59:09;;;;;;;2.10;1.42;;;26.30;45.90;;;;;;5065570;28;20039;-74
2021/06/05 15:01:35;;;;;;;3.95;1.55;;;26.30;45.90;;;;;;5064954;28;20177;-72
2021/06/05 15:04:01;;;;;;;3.03;1.38;;;26.20;45.90;;;;;;5065171;28;20213;-74
2021/06/05 15:06:27;;;;;;;3.20;1.77;;;26.20;46.00;;;;;;5064465;28;20546;-73
2021/06/05 15:08:53;;;;;;;2.78;1.50;;;26.20;46.10;;;;;;5064296;28;20024;-73
2021/06/05 15:11:20;;;;;;;3.42;1.50;;;26.20;46.20;;;;;;5064333;28;20060;-73
2021/06/05 15:13:47;;;;;;;2.38;1.67;;;26.20;46.50;;;;;;5064349;28;20035;-73
2021/06/05 15:16:14;;;;;;;2.58;1.63;;;26.30;46.60;;;;;;5065224;28;20056;-76
2021/06/05 15:18:41;;;;;;;3.05;1.42;;;26.40;46.70;;;;;;5048022;28;20031;-73
2021/06/05 15:21:08;;;;;;;2.85;1.95;;;26.50;46.70;;;;;;5064188;28;20039;-73
2021/06/05 15:23:34;;;;;;;3.67;1.63;;;26.70;46.60;;;;;;5065035;28;20043;-74
2021/06/05 15:26:01;;;;;;;3.17;1.65;;;26.80;46.50;;;;;;5065674;28;20040;-74
2021/06/05 15:28:27;;;;;;;5.25;1.70;;;26.90;46.30;;;;;;5063855;28;20036;-75
2021/06/05 15:30:54;;;;;;;3.10;1.80;;;27.00;46.20;;;;;;5064438;28;20033;-75
2021/06/05 15:33:24;;;;;;;4.75;2.08;;;27.00;45.90;;;;;;5065330;28;20028;-73
2021/06/05 15:35:51;;;;;;;4.55;1.58;;;26.90;46.00;;;;;;5064327;28;20029;-74
2021/06/05 15:38:19;;;;;;;2.92;1.77;;;26.90;46.10;;;;;;5068913;28;20040;-71
2021/06/05 15:40:46;;;;;;;4.70;2.05;;;27.00;46.30;;;;;;5068151;28;20060;-72
2021/06/05 15:43:15;;;;;;;4.00;2.20;;;27.00;46.20;;;;;;5051359;28;20036;-72
2021/06/05 15:45:44;;;;;;;4.68;2.28;;;27.10;46.20;;;;;;5069587;28;20052;-72
2021/06/05 15:48:25;;;;;;;4.25;2.28;;;27.10;46.20;;;;;;5051408;28;20503;-73
2021/06/05 15:50:52;;;;;;;2.83;1.70;;;27.20;46.10;;;;;;5068225;28;20039;-73
2021/06/05 15:53:22;;;;;;;6.97;2.28;;;27.10;46.00;;;;;;5067948;28;20114;-73
2021/06/05 15:55:48;;;;;;;3.17;1.83;;;27.10;46.10;;;;;;5050996;28;20034;-72
2021/06/05 15:58:16;;;;;;;6.15;2.00;;;27.10;46.40;;;;;;5069246;28;20031;-72
2021/06/05 16:00:43;;;;;;;5.43;2.47;;;27.10;46.20;;;;;;5069296;28;20040;-73
2021/06/05 16:03:10;;;;;;;9.52;2.28;;;27.10;46.00;;;;;;5067482;28;20432;-71
2021/06/05 16:05:37;;;;;;;3.58;2.40;;;27.10;46.10;;;;;;5068099;28;20048;-73
2021/06/05 16:08:03;;;;;;;5.00;2.20;;;27.10;46.30;;;;;;5068750;28;20429;-73
2021/06/05 16:10:30;;;;;;;5.65;2.70;;;27.10;46.50;;;;;;5067547;28;20036;-73
2021/06/05 16:12:56;;;;;;;6.88;2.55;;;27.20;46.60;;;;;;5067188;28;20024;-73
2021/06/05 16:15:34;;;;;;;6.25;2.80;;;27.20;46.70;;;;;;5068195;28;20052;-74
2021/06/05 16:18:02;;;;;;;6.38;3.38;;;27.20;46.80;;;;;;5066764;28;20035;-72
2021/06/05 16:20:29;;;;;;;9.35;3.70;;;27.20;46.90;;;;;;5050729;28;20028;-77
2021/06/05 16:22:55;;;;;;;6.75;3.17;;;27.10;47.00;;;;;;5066925;28;20518;-73
2021/06/05 16:25:24;;;;;;;8.88;3.45;;;27.00;47.20;;;;;;5068807;28;20033;-74
2021/06/05 16:27:51;;;;;;;6.30;3.17;;;26.90;47.50;;;;;;5068903;28;20499;-74
2021/06/05 16:30:22;;;;;;;8.57;2.72;;;26.90;47.60;;;;;;5068551;28;20394;-73
2021/06/05 16:32:51;;;;;;;6.95;2.75;;;26.90;47.60;;;;;;5049893;28;20024;-73
2021/06/05 16:35:22;;;;;;;4.45;2.58;;;26.90;47.70;;;;;;5050096;28;20471;-73
2021/06/05 16:37:48;;;;;;;7.18;3.15;;;26.70;47.70;;;;;;5064502;28;20593;-76
2021/06/05 16:40:14;;;;;;;6.85;3.08;;;26.70;48.00;;;;;;5066178;28;20492;-73
2021/06/05 16:42:41;;;;;;;9.98;3.03;;;26.50;48.10;;;;;;5066325;28;20136;-74
2021/06/05 16:45:11;;;;;;;9.35;3.42;;;26.40;48.30;;;;;;5067494;28;20466;-74